createdAt,value
2022-09-12T00:00:10.036Z,3.27
2022-09-12T00:02:44.390Z,3.40
2022-09-12T00:05:14.430Z,3.30
2022-09-12T00:07:43.149Z,2.90
2022-09-12T00:10:11.909Z,3.20
2022-09-12T00:12:40.658Z,3.03
2022-09-12T00:15:11.077Z,3.10
2022-09-12T00:17:40.431Z,3.50
2022-09-12T00:20:11.590Z,3.30
2022-09-12T00:22:41.542Z,3.43
2022-09-12T00:25:10.320Z,3.53
2022-09-12T00:27:38.938Z,3.53
2022-09-12T00:30:08.536Z,3.63
2022-09-12T00:32:36.978Z,3.40
2022-09-12T00:35:07.337Z,3.53
2022-09-12T00:37:36.821Z,3.67
2022-09-12T00:40:08.012Z,4.07
2022-09-12T00:42:36.659Z,3.67
2022-09-12T00:45:05.814Z,3.47
2022-09-12T00:47:37.893Z,4.00
2022-09-12T00:50:09.697Z,3.63
2022-09-12T00:52:43.337Z,3.80
2022-09-12T00:55:18.203Z,3.37
2022-09-12T00:57:51.718Z,3.40
2022-09-12T01:00:24.119Z,3.80
2022-09-12T01:02:56.653Z,3.47
2022-09-12T01:05:26.486Z,3.70
2022-09-12T01:07:56.277Z,3.50
2022-09-12T01:10:26.911Z,3.93
2022-09-12T01:13:00.463Z,4.10
2022-09-12T01:15:29.383Z,3.93
2022-09-12T01:18:10.233Z,4.00
2022-09-12T01:20:49.509Z,3.83
2022-09-12T01:23:42.399Z,4.00
2022-09-12T01:26:32.199Z,3.67
2022-09-12T01:29:19.456Z,4.03
2022-09-12T01:31:58.041Z,3.90
2022-09-12T01:34:30.311Z,4.10
2022-09-12T01:37:08.147Z,3.90
2022-09-12T01:39:45.053Z,4.10
2022-09-12T01:42:22.499Z,3.93
2022-09-12T01:45:00.754Z,3.70
2022-09-12T01:47:40.794Z,3.77
2022-09-12T01:50:19.538Z,3.53
2022-09-12T01:52:53.911Z,3.60
2022-09-12T01:55:27.130Z,3.40
2022-09-12T01:58:02.163Z,3.50
2022-09-12T02:00:33.484Z,3.27
2022-09-12T02:03:09.714Z,3.30
2022-09-12T02:05:42.244Z,3.50
2022-09-12T02:08:14.633Z,3.70
2022-09-12T02:10:48.065Z,3.80
2022-09-12T02:13:25.265Z,3.33
2022-09-12T02:15:59.865Z,3.77
2022-09-12T02:18:34.624Z,3.73
2022-09-12T02:21:07.720Z,3.80
2022-09-12T02:23:42.287Z,3.57
2022-09-12T02:26:17.842Z,3.80
2022-09-12T02:28:47.027Z,3.80
2022-09-12T02:31:24.825Z,3.80
2022-09-12T02:34:09.636Z,3.63
2022-09-12T02:36:47.873Z,4.03
2022-09-12T02:39:20.328Z,4.03
2022-09-12T02:41:52.392Z,3.73
2022-09-12T02:44:22.447Z,4.10
2022-09-12T02:46:56.445Z,3.63
2022-09-12T02:49:27.008Z,4.33
2022-09-12T02:51:55.904Z,4.10
2022-09-12T02:54:26.103Z,4.00
2022-09-12T02:56:54.692Z,3.80
2022-09-12T02:59:26.010Z,4.00
2022-09-12T03:02:18.001Z,4.00
2022-09-12T03:05:11.694Z,5.17
2022-09-12T03:08:00.544Z,4.30
2022-09-12T03:10:38.721Z,4.27
2022-09-12T03:13:19.004Z,3.77
2022-09-12T03:15:58.401Z,4.33
2022-09-12T03:18:40.295Z,4.07
2022-09-12T03:21:17.633Z,4.00
2022-09-12T03:24:02.115Z,4.07
2022-09-12T03:26:37.651Z,4.13
2022-09-12T03:29:09.178Z,4.33
2022-09-12T03:31:49.362Z,4.20
2022-09-12T03:34:17.799Z,3.60
2022-09-12T03:36:49.102Z,4.13
2022-09-12T03:39:18.385Z,4.27
2022-09-12T03:41:46.794Z,4.03
2022-09-12T03:44:15.169Z,4.90
2022-09-12T03:46:45.177Z,4.03
2022-09-12T03:49:13.807Z,4.33
2022-09-12T03:51:44.310Z,4.20
2022-09-12T03:54:14.275Z,4.37
2022-09-12T03:56:42.763Z,3.77
2022-09-12T03:59:11.277Z,4.23
2022-09-12T04:01:45.435Z,4.50
2022-09-12T04:04:13.986Z,4.33
2022-09-12T04:06:42.962Z,4.60
2022-09-12T04:09:11.237Z,4.77
2022-09-12T04:11:41.271Z,4.87
2022-09-12T04:14:09.864Z,5.07
2022-09-12T04:16:38.113Z,5.30
2022-09-12T04:19:06.697Z,4.83
2022-09-12T04:21:36.414Z,4.80
2022-09-12T04:24:04.919Z,5.67
2022-09-12T04:26:33.360Z,5.00
2022-09-12T04:29:03.317Z,4.87
2022-09-12T04:31:31.671Z,4.90
2022-09-12T04:34:02.405Z,4.90
2022-09-12T04:36:31.217Z,5.67
2022-09-12T04:39:01.510Z,5.30
2022-09-12T04:41:32.307Z,5.37
2022-09-12T04:44:04.757Z,5.40
2022-09-12T04:46:35.553Z,5.37
2022-09-12T04:49:04.745Z,5.10
2022-09-12T04:51:36.106Z,5.30
2022-09-12T04:54:06.101Z,5.50
2022-09-12T04:56:37.860Z,5.93
2022-09-12T04:59:16.221Z,5.47
2022-09-12T05:01:44.752Z,6.23
2022-09-12T05:04:14.388Z,5.20
2022-09-12T05:06:44.448Z,5.63
2022-09-12T05:09:15.409Z,5.90
2022-09-12T05:14:36.736Z,5.57
2022-09-12T05:17:06.328Z,5.97
2022-09-12T05:19:34.924Z,5.77
2022-09-12T05:22:05.062Z,5.70
2022-09-12T05:24:33.928Z,6.40
2022-09-12T05:27:03.560Z,6.67
2022-09-12T05:29:31.946Z,5.87
2022-09-12T05:32:01.786Z,6.33
2022-09-12T05:34:30.390Z,6.17
2022-09-12T05:36:58.752Z,6.27
2022-09-12T05:39:27.258Z,6.27
2022-09-12T05:41:56.054Z,6.40
2022-09-12T05:44:25.041Z,6.23
2022-09-12T05:46:53.796Z,6.37
2022-09-12T05:49:23.563Z,6.90
2022-09-12T05:51:52.354Z,5.27
2022-09-12T05:54:22.994Z,4.33
2022-09-12T05:56:51.500Z,3.60
2022-09-12T05:59:24.366Z,2.30
2022-09-12T06:01:52.820Z,3.93
2022-09-12T06:04:23.852Z,2.77
2022-09-12T06:06:52.152Z,2.87
2022-09-12T06:09:20.902Z,2.00
2022-09-12T06:11:49.325Z,2.37
2022-09-12T06:14:19.572Z,2.55
2022-09-12T06:16:48.780Z,2.42
2022-09-12T06:19:18.601Z,2.00
2022-09-12T06:21:49.830Z,3.15
2022-09-12T06:24:19.014Z,2.85
2022-09-12T06:26:47.745Z,3.25
2022-09-12T06:29:16.594Z,2.70
2022-09-12T06:31:45.923Z,2.58
2022-09-12T06:34:16.241Z,2.42
2022-09-12T06:36:48.011Z,2.25
2022-09-12T06:39:18.214Z,2.97
2022-09-12T06:41:47.402Z,2.97
2022-09-12T06:44:19.444Z,2.45
2022-09-12T06:46:48.176Z,2.63
2022-09-12T06:49:18.054Z,2.40
2022-09-12T06:51:48.525Z,6.38
2022-09-12T06:54:18.255Z,6.07
2022-09-12T06:56:46.731Z,4.20
2022-09-12T06:59:15.675Z,26.65
2022-09-12T07:01:44.661Z,22.17
2022-09-12T07:04:13.231Z,6.45
2022-09-12T07:06:44.709Z,3.60
2022-09-12T07:09:17.546Z,3.03
2022-09-12T07:11:47.041Z,6.95
2022-09-12T07:14:16.199Z,3.33
2022-09-12T07:16:44.984Z,3.13
2022-09-12T07:19:14.746Z,2.72
2022-09-12T07:21:43.222Z,3.40
2022-09-12T07:24:13.219Z,2.55
2022-09-12T07:26:42.740Z,3.03
2022-09-12T07:29:36.071Z,2.72
2022-09-12T07:32:05.969Z,3.25
2022-09-12T07:34:34.789Z,3.70
2022-09-12T07:37:03.070Z,8.35
2022-09-12T07:39:32.893Z,8.65
2022-09-12T07:42:02.806Z,11.73
2022-09-12T07:44:31.256Z,4.07
2022-09-12T07:46:59.673Z,3.47
2022-09-12T07:49:28.112Z,4.00
2022-09-12T07:51:56.571Z,3.17
2022-09-12T07:54:24.951Z,2.75
2022-09-12T07:56:57.559Z,3.20
2022-09-12T07:59:50.990Z,28.67
2022-09-12T08:02:17.545Z,13.90
2022-09-12T08:04:46.929Z,3.50
2022-09-12T08:07:15.628Z,2.93
2022-09-12T08:09:43.975Z,3.90
2022-09-12T08:12:13.915Z,6.00
2022-09-12T08:14:42.375Z,3.23
2022-09-12T08:17:11.696Z,3.33
2022-09-12T08:19:40.115Z,3.00
2022-09-12T08:22:08.550Z,3.20
2022-09-12T08:24:36.938Z,2.70
2022-09-12T08:27:05.336Z,2.30
2022-09-12T08:29:35.248Z,1.80
2022-09-12T08:32:04.870Z,2.00
2022-09-12T08:34:33.234Z,2.00
2022-09-12T08:37:01.775Z,2.20
2022-09-12T08:39:30.200Z,2.20
2022-09-12T08:42:03.286Z,2.30
2022-09-12T08:45:06.554Z,5.00
2022-09-12T08:47:38.950Z,2.80
2022-09-12T08:50:18.018Z,3.03
2022-09-12T08:52:56.134Z,2.27
2022-09-12T08:55:36.204Z,1.90
2022-09-12T08:58:14.656Z,2.00
2022-09-12T09:00:50.656Z,2.40
2022-09-12T09:03:40.717Z,1.93
2022-09-12T09:06:21.391Z,1.90
2022-09-12T09:08:58.935Z,2.30
2022-09-12T09:11:48.345Z,1.93
2022-09-12T09:14:46.043Z,2.27
2022-09-12T09:17:25.402Z,5.10
2022-09-12T09:20:03.356Z,9.13
2022-09-12T09:22:42.870Z,12.17
2022-09-12T09:25:22.551Z,2.17
2022-09-12T09:27:57.984Z,3.60
2022-09-12T09:30:26.343Z,12.50
2022-09-12T09:33:01.044Z,12.53
2022-09-12T09:35:40.314Z,3.80
2022-09-12T09:38:24.925Z,2.00
2022-09-12T09:41:12.494Z,2.03
2022-09-12T09:43:41.134Z,8.40
2022-09-12T09:46:10.582Z,6.17
2022-09-12T09:48:45.000Z,4.00
2022-09-12T09:51:15.035Z,1.77
2022-09-12T09:53:49.594Z,1.57
2022-09-12T09:56:29.763Z,3.40
2022-09-12T09:58:58.431Z,4.20
2022-09-12T10:01:33.539Z,1.53
2022-09-12T10:04:04.536Z,1.20
2022-09-12T10:06:34.831Z,1.50
2022-09-12T10:09:18.845Z,1.40
2022-09-12T10:11:47.497Z,1.30
2022-09-12T10:14:31.653Z,1.77
2022-09-12T10:17:00.263Z,1.50
2022-09-12T10:19:37.843Z,1.33
2022-09-12T10:22:08.574Z,1.33
2022-09-12T10:24:41.355Z,1.30
2022-09-12T10:27:16.603Z,1.47
2022-09-12T10:29:48.646Z,1.20
2022-09-12T10:32:30.857Z,1.40
2022-09-12T10:35:03.773Z,1.20
2022-09-12T10:37:34.855Z,0.87
2022-09-12T10:40:08.098Z,1.50
2022-09-12T10:42:51.401Z,1.27
2022-09-12T10:45:26.495Z,1.70
2022-09-12T10:48:03.083Z,3.20
2022-09-12T10:50:38.314Z,3.13
2022-09-12T10:53:20.397Z,7.43
2022-09-12T10:56:06.982Z,3.30
2022-09-12T10:58:53.886Z,3.00
2022-09-12T11:01:36.569Z,3.60
2022-09-12T11:04:25.913Z,4.83
2022-09-12T11:07:19.253Z,2.17
2022-09-12T11:09:57.215Z,2.00
2022-09-12T11:12:33.315Z,4.97
2022-09-12T11:15:15.512Z,3.73
2022-09-12T11:17:53.097Z,3.07
2022-09-12T11:20:43.741Z,3.53
2022-09-12T11:23:57.362Z,3.60
2022-09-12T11:26:43.611Z,2.87
2022-09-12T11:29:22.397Z,1.10
2022-09-12T11:32:12.181Z,2.10
2022-09-12T11:34:53.382Z,2.00
2022-09-12T11:37:47.578Z,2.40
2022-09-12T11:40:29.187Z,1.80
2022-09-12T11:43:02.770Z,1.33
2022-09-12T11:45:37.270Z,1.10
2022-09-12T11:48:11.429Z,1.10
2022-09-12T11:50:39.972Z,0.80
2022-09-12T11:53:17.784Z,1.10
2022-09-12T11:55:56.660Z,1.70
2022-09-12T11:58:29.364Z,1.60
2022-09-12T12:01:04.443Z,1.40
2022-09-12T12:03:40.833Z,1.30
2022-09-12T12:06:19.201Z,1.20
2022-09-12T12:08:50.830Z,1.33
2022-09-12T12:11:32.332Z,1.20
2022-09-12T12:14:05.191Z,1.00
2022-09-12T12:16:35.589Z,0.90
2022-09-12T12:19:25.830Z,1.13
2022-09-12T12:21:54.471Z,0.90
2022-09-12T12:24:25.144Z,1.00
2022-09-12T12:27:00.989Z,1.00
2022-09-12T12:29:44.162Z,1.03
2022-09-12T12:32:33.663Z,1.00
2022-09-12T12:35:39.887Z,1.30
2022-09-12T12:38:28.842Z,1.10
2022-09-12T12:41:45.502Z,1.00
2022-09-12T12:45:05.331Z,1.20
2022-09-12T12:47:42.230Z,3.37
2022-09-12T12:50:23.997Z,1.80
2022-09-12T12:52:55.603Z,4.60
2022-09-12T12:55:28.104Z,2.30
2022-09-12T12:57:58.205Z,3.20
2022-09-12T13:00:33.951Z,1.93
2022-09-12T13:03:11.926Z,1.80
2022-09-12T13:05:43.026Z,3.53
2022-09-12T13:08:26.670Z,3.23
2022-09-12T13:10:59.351Z,2.27
2022-09-12T13:13:33.438Z,1.23
2022-09-12T13:16:02.172Z,1.10
2022-09-12T13:18:42.978Z,3.20
2022-09-12T13:21:14.689Z,4.07
2022-09-12T13:23:43.581Z,2.80
2022-09-12T13:26:14.501Z,1.77
2022-09-12T13:28:43.149Z,1.87
2022-09-12T13:31:24.516Z,1.57
2022-09-12T13:33:59.210Z,5.73
2022-09-12T13:36:55.881Z,5.13
2022-09-12T13:39:28.343Z,3.03
2022-09-12T13:42:24.870Z,2.57
2022-09-12T13:44:57.869Z,2.17
2022-09-12T13:47:30.783Z,1.77
2022-09-12T13:50:01.750Z,1.20
2022-09-12T13:52:33.507Z,1.40
2022-09-12T13:55:06.570Z,1.40
2022-09-12T13:57:37.765Z,1.37
2022-09-12T14:00:18.383Z,4.07
2022-09-12T14:02:48.649Z,1.53
2022-09-12T14:05:23.028Z,5.17
2022-09-12T14:07:56.731Z,1.43
2022-09-12T14:10:33.289Z,1.90
2022-09-12T14:13:12.242Z,1.40
2022-09-12T14:15:41.518Z,1.60
2022-09-12T14:18:24.718Z,2.30
2022-09-12T14:20:57.434Z,4.33
2022-09-12T14:23:32.458Z,1.20
2022-09-12T14:26:06.811Z,1.57
2022-09-12T14:28:37.749Z,1.87
2022-09-12T14:31:08.415Z,3.60
2022-09-12T14:33:49.583Z,2.50
2022-09-12T14:36:24.969Z,2.40
2022-09-12T14:38:56.925Z,1.43
2022-09-12T14:41:30.171Z,1.40
2022-09-12T14:44:01.862Z,1.80
2022-09-12T14:46:34.556Z,1.07
2022-09-12T14:49:09.414Z,1.60
2022-09-12T14:51:41.322Z,1.87
2022-09-12T14:54:37.591Z,1.40
2022-09-12T14:57:31.509Z,1.30
2022-09-12T15:00:21.072Z,1.23
2022-09-12T15:02:52.344Z,1.40
2022-09-12T15:05:24.731Z,1.50
2022-09-12T15:07:59.085Z,1.57
2022-09-12T15:10:31.635Z,9.97
2022-09-12T15:13:16.210Z,10.70
2022-09-12T15:15:47.167Z,5.90
2022-09-12T15:18:16.522Z,4.20
2022-09-12T15:20:46.247Z,2.50
2022-09-12T15:23:22.014Z,2.87
2022-09-12T15:25:51.035Z,1.60
2022-09-12T15:28:23.948Z,1.50
2022-09-12T15:30:54.777Z,1.73
2022-09-12T15:33:25.556Z,1.80
2022-09-12T15:35:54.406Z,1.43
2022-09-12T15:38:26.576Z,1.63
2022-09-12T15:40:56.047Z,1.20
2022-09-12T15:43:26.633Z,1.20
2022-09-12T15:45:55.514Z,1.50
2022-09-12T15:48:24.089Z,1.60
2022-09-12T15:50:53.123Z,2.83
2022-09-12T15:53:21.525Z,11.27
2022-09-12T15:55:51.457Z,3.67
2022-09-12T15:58:21.146Z,3.10
2022-09-12T16:00:49.540Z,5.23
2022-09-12T16:03:24.067Z,6.17
2022-09-12T16:05:57.401Z,4.63
2022-09-12T16:08:26.512Z,5.10
2022-09-12T16:10:58.323Z,3.50
2022-09-12T16:13:28.013Z,3.20
2022-09-12T16:15:58.516Z,14.80
2022-09-12T16:18:28.135Z,7.43
2022-09-12T16:20:57.212Z,11.63
2022-09-12T16:23:25.922Z,10.33
2022-09-12T16:26:03.119Z,10.47
2022-09-12T16:28:34.691Z,7.23
2022-09-12T16:31:08.559Z,5.20
2022-09-12T16:33:38.295Z,4.30
2022-09-12T16:36:12.059Z,3.90
2022-09-12T16:38:43.081Z,9.27
2022-09-12T16:41:14.522Z,11.47
2022-09-12T16:43:44.571Z,18.37
2022-09-12T16:46:16.285Z,15.23
2022-09-12T16:48:51.542Z,11.60
2022-09-12T16:51:23.733Z,9.57
2022-09-12T16:53:55.003Z,14.63
2022-09-12T16:56:26.762Z,30.17
2022-09-12T16:58:55.900Z,24.07
2022-09-12T17:01:26.674Z,24.87
2022-09-12T17:03:56.805Z,38.40
2022-09-12T17:06:26.922Z,31.10
2022-09-12T17:09:01.263Z,22.73
2022-09-12T17:11:36.512Z,17.10
2022-09-12T17:14:07.319Z,12.33
2022-09-12T17:16:38.305Z,9.00
2022-09-12T17:19:08.152Z,7.33
2022-09-12T17:21:37.127Z,17.30
2022-09-12T17:24:06.043Z,22.63
2022-09-12T17:26:38.486Z,20.43
2022-09-12T17:29:06.969Z,13.93
2022-09-12T17:31:38.084Z,10.00
2022-09-12T17:34:06.518Z,7.83
2022-09-12T17:36:44.564Z,5.37
2022-09-12T17:39:14.760Z,6.93
2022-09-12T17:41:46.325Z,5.57
2022-09-12T17:44:16.232Z,7.43
2022-09-12T17:46:45.864Z,6.93
2022-09-12T17:49:18.678Z,5.80
2022-09-12T17:51:49.046Z,5.17
2022-09-12T17:54:21.023Z,18.67
2022-09-12T17:56:51.969Z,23.90
2022-09-12T17:59:24.439Z,26.43
2022-09-12T18:02:11.282Z,17.43
2022-09-12T18:04:40.841Z,11.83
2022-09-12T18:07:12.134Z,7.63
2022-09-12T18:09:42.101Z,6.37
2022-09-12T18:12:12.699Z,4.77
2022-09-12T18:14:43.408Z,3.83
2022-09-12T18:17:14.523Z,3.70
2022-09-12T18:19:43.679Z,3.17
2022-09-12T18:22:12.212Z,3.03
2022-09-12T18:24:45.086Z,2.80
2022-09-12T18:27:14.782Z,3.30
2022-09-12T18:29:43.124Z,3.50
2022-09-12T18:32:11.913Z,3.13
2022-09-12T18:34:40.409Z,3.57
2022-09-12T18:37:08.762Z,3.07
2022-09-12T18:39:38.485Z,5.37
2022-09-12T18:42:07.376Z,3.80
2022-09-12T18:44:37.653Z,6.53
2022-09-12T18:47:06.545Z,15.30
2022-09-12T18:49:35.950Z,13.73
2022-09-12T18:52:04.613Z,10.70
2022-09-12T18:54:33.561Z,8.23
2022-09-12T18:57:04.812Z,7.27
2022-09-12T18:59:33.484Z,5.87
2022-09-12T19:02:03.413Z,4.90
2022-09-12T19:04:32.101Z,4.37
2022-09-12T19:07:01.638Z,3.60
2022-09-12T19:09:30.114Z,3.33
2022-09-12T19:11:59.285Z,3.57
2022-09-12T19:14:28.123Z,3.60
2022-09-12T19:16:56.544Z,3.63
2022-09-12T19:19:26.562Z,3.43
2022-09-12T19:21:55.296Z,5.00
2022-09-12T19:24:25.330Z,13.03
2022-09-12T19:26:54.507Z,10.90
2022-09-12T19:29:23.304Z,10.67
2022-09-12T19:31:52.288Z,19.30
2022-09-12T19:34:20.664Z,15.97
2022-09-12T19:36:50.511Z,13.33
2022-09-12T19:39:20.492Z,8.90
2022-09-12T19:41:49.371Z,7.70
2022-09-12T19:44:19.327Z,7.43
2022-09-12T19:46:47.867Z,6.03
2022-09-12T19:49:16.310Z,5.50
2022-09-12T19:51:44.972Z,4.77
2022-09-12T19:54:17.136Z,4.40
2022-09-12T19:56:49.598Z,4.33
2022-09-12T19:59:18.030Z,3.80
2022-09-12T20:01:46.918Z,4.00
2022-09-12T20:04:15.695Z,3.80
2022-09-12T20:06:44.395Z,3.83
2022-09-12T20:09:14.374Z,3.50
2022-09-12T20:11:42.839Z,3.40
2022-09-12T20:14:14.258Z,3.30
2022-09-12T20:16:43.347Z,3.47
2022-09-12T20:19:18.879Z,4.00
2022-09-12T20:21:47.479Z,12.97
2022-09-12T20:24:23.404Z,14.93
2022-09-12T20:26:51.730Z,10.57
2022-09-12T20:29:26.278Z,12.83
2022-09-12T20:31:54.835Z,15.90
2022-09-12T20:34:29.599Z,11.83
2022-09-12T20:36:58.482Z,10.43
2022-09-12T20:39:30.724Z,11.67
2022-09-12T20:41:59.023Z,9.53
2022-09-12T20:44:30.356Z,8.03
2022-09-12T20:46:59.823Z,5.83
2022-09-12T20:49:34.251Z,5.33
2022-09-12T20:52:05.239Z,4.80
2022-09-12T20:54:35.134Z,5.37
2022-09-12T20:57:03.697Z,6.30
2022-09-12T20:59:35.243Z,16.67
2022-09-12T21:02:03.581Z,16.63
2022-09-12T21:04:32.058Z,14.57
2022-09-12T21:07:00.801Z,16.60
2022-09-12T21:09:29.118Z,23.53
2022-09-12T21:11:58.967Z,15.90
2022-09-12T21:14:27.489Z,11.73
2022-09-12T21:16:55.958Z,8.70
2022-09-12T21:19:26.470Z,7.30
2022-09-12T21:21:54.943Z,6.87
2022-09-12T21:24:24.904Z,5.90
2022-09-12T21:26:53.512Z,5.00
2022-09-12T21:29:27.245Z,4.93
2022-09-12T21:31:56.130Z,4.47
2022-09-12T21:34:24.946Z,3.90
2022-09-12T21:36:54.854Z,4.03
2022-09-12T21:39:23.211Z,3.60
2022-09-12T21:41:51.595Z,3.77
2022-09-12T21:44:20.799Z,3.53
2022-09-12T21:46:51.158Z,3.63
2022-09-12T21:49:22.565Z,3.43
2022-09-12T21:51:52.696Z,3.47
2022-09-12T21:54:21.555Z,3.27
2022-09-12T21:56:50.189Z,3.70
2022-09-12T21:59:20.160Z,3.40
2022-09-12T22:01:49.260Z,3.23
2022-09-12T22:04:19.181Z,3.50
2022-09-12T22:06:47.908Z,3.03
2022-09-12T22:09:17.260Z,8.47
2022-09-12T22:11:47.290Z,8.87
2022-09-12T22:14:15.883Z,17.47
2022-09-12T22:16:45.113Z,11.67
2022-09-12T22:19:15.305Z,7.17
2022-09-12T22:22:06.313Z,5.77
2022-09-12T22:24:33.698Z,5.00
2022-09-12T22:27:05.167Z,5.23
2022-09-12T22:29:33.795Z,4.27
2022-09-12T22:32:02.521Z,4.07
2022-09-12T22:34:31.823Z,3.90
2022-09-12T22:37:01.619Z,4.27
2022-09-12T22:39:30.046Z,3.87
2022-09-12T22:41:59.178Z,3.67
2022-09-12T22:44:29.621Z,3.97
2022-09-12T22:46:58.206Z,3.13
2022-09-12T22:49:27.600Z,3.50
2022-09-12T22:51:56.180Z,3.47
2022-09-12T22:54:26.673Z,3.27
2022-09-12T22:56:55.506Z,3.50
2022-09-12T22:59:24.231Z,3.20
2022-09-12T23:01:52.774Z,3.57
2022-09-12T23:04:21.261Z,3.20
2022-09-12T23:06:50.182Z,3.60
2022-09-12T23:09:18.942Z,2.90
2022-09-12T23:11:49.526Z,2.90
2022-09-12T23:14:18.093Z,3.10
2022-09-12T23:16:47.148Z,3.20
2022-09-12T23:19:15.712Z,3.30
2022-09-12T23:21:44.153Z,3.53
2022-09-12T23:24:13.606Z,3.17
2022-09-12T23:26:42.385Z,2.73
2022-09-12T23:29:12.571Z,3.33
2022-09-12T23:31:42.141Z,3.47
2022-09-12T23:34:11.159Z,3.10
2022-09-12T23:36:41.234Z,3.33
2022-09-12T23:39:11.204Z,3.10
2022-09-12T23:41:40.842Z,3.53
2022-09-12T23:44:09.773Z,3.73
2022-09-12T23:46:39.664Z,3.43
2022-09-12T23:49:09.126Z,2.90
2022-09-12T23:51:37.670Z,4.00
2022-09-12T23:54:06.324Z,3.77
2022-09-12T23:56:34.883Z,3.47
2022-09-12T23:59:03.644Z,4.00
